createdAt,value
2022-10-01T00:01:15.815Z,7.28
2022-10-01T00:03:43.447Z,9.13
2022-10-01T00:06:21.347Z,7.38
2022-10-01T00:08:49.824Z,6.97
2022-10-01T00:11:20.849Z,7.80
2022-10-01T00:13:48.263Z,9.15
2022-10-01T00:16:18.113Z,8.95
2022-10-01T00:18:46.792Z,9.75
2022-10-01T00:21:16.592Z,6.60
2022-10-01T00:23:43.792Z,6.70
2022-10-01T00:26:17.016Z,8.70
2022-10-01T00:28:46.339Z,8.73
2022-10-01T00:31:14.339Z,9.52
2022-10-01T00:33:42.067Z,8.67
2022-10-01T00:36:10.362Z,7.68
2022-10-01T00:38:38.492Z,6.68
2022-10-01T00:41:05.774Z,8.73
2022-10-01T00:43:35.371Z,7.75
2022-10-01T00:46:14.079Z,6.80
2022-10-01T00:48:57.341Z,8.05
2022-10-01T00:51:29.553Z,6.05
2022-10-01T00:54:02.611Z,7.82
2022-10-01T00:56:32.247Z,10.75
2022-10-01T00:59:00.121Z,7.37
2022-10-01T01:01:27.106Z,7.43
2022-10-01T01:03:54.518Z,10.15
2022-10-01T01:06:21.214Z,9.50
2022-10-01T01:08:53.431Z,8.23
2022-10-01T01:11:36.583Z,7.33
2022-10-01T01:14:33.209Z,8.75
2022-10-01T01:17:08.583Z,7.93
2022-10-01T01:20:17.637Z,6.97
2022-10-01T01:23:08.242Z,5.50
2022-10-01T01:25:53.702Z,7.60
2022-10-01T01:28:25.680Z,6.43
2022-10-01T01:30:56.961Z,6.35
2022-10-01T01:33:26.765Z,4.95
2022-10-01T01:35:58.306Z,5.10
2022-10-01T01:38:29.726Z,6.13
2022-10-01T01:41:00.355Z,5.50
2022-10-01T01:43:33.189Z,6.22
2022-10-01T01:46:02.280Z,7.00
2022-10-01T01:48:30.813Z,6.43
2022-10-01T01:51:05.558Z,7.03
2022-10-01T01:53:32.657Z,7.15
2022-10-01T01:56:00.287Z,7.68
2022-10-01T01:58:28.134Z,5.20
2022-10-01T02:00:54.875Z,6.10
2022-10-01T02:03:25.234Z,5.50
2022-10-01T02:06:04.947Z,5.53
2022-10-01T02:08:40.986Z,5.57
2022-10-01T02:11:16.364Z,5.50
2022-10-01T02:14:04.150Z,5.90
2022-10-01T02:16:50.688Z,5.23
2022-10-01T02:19:28.365Z,3.85
2022-10-01T02:22:08.621Z,4.28
2022-10-01T02:24:44.206Z,4.55
2022-10-01T02:27:23.266Z,3.67
2022-10-01T02:29:52.546Z,3.70
2022-10-01T02:32:20.102Z,4.25
2022-10-01T02:34:49.779Z,4.53
2022-10-01T02:37:20.818Z,4.32
2022-10-01T02:39:48.378Z,4.00
2022-10-01T02:42:16.753Z,3.20
2022-10-01T02:44:45.451Z,3.70
2022-10-01T02:47:18.034Z,3.17
2022-10-01T02:49:44.800Z,10.85
2022-10-01T02:52:34.309Z,3.92
2022-10-01T02:55:07.400Z,4.20
2022-10-01T02:57:34.626Z,2.33
2022-10-01T03:00:06.386Z,3.75
2022-10-01T03:02:33.172Z,2.55
2022-10-01T03:05:00.579Z,3.53
2022-10-01T03:07:29.730Z,2.70
2022-10-01T03:09:56.849Z,3.15
2022-10-01T03:12:23.972Z,3.50
2022-10-01T03:14:51.050Z,2.80
2022-10-01T03:17:17.837Z,2.92
2022-10-01T03:19:44.513Z,2.70
2022-10-01T03:22:14.087Z,2.17
2022-10-01T03:24:40.866Z,3.42
2022-10-01T03:27:07.545Z,2.63
2022-10-01T03:29:34.211Z,2.83
2022-10-01T03:32:01.118Z,2.47
2022-10-01T03:34:27.926Z,2.40
2022-10-01T03:36:54.576Z,2.85
2022-10-01T03:39:21.221Z,2.75
2022-10-01T03:41:47.925Z,3.25
2022-10-01T03:44:14.610Z,3.73
2022-10-01T03:46:41.316Z,3.30
2022-10-01T03:49:08.039Z,3.53
2022-10-01T03:51:37.567Z,2.70
2022-10-01T03:54:06.007Z,5.68
2022-10-01T03:56:33.238Z,2.37
2022-10-01T03:58:59.911Z,3.60
2022-10-01T04:01:27.022Z,2.85
2022-10-01T04:03:54.189Z,4.03
2022-10-01T04:06:20.891Z,3.15
2022-10-01T04:08:47.784Z,5.23
2022-10-01T04:11:14.652Z,4.70
2022-10-01T04:13:41.426Z,3.60
2022-10-01T04:16:08.553Z,3.85
2022-10-01T04:18:35.726Z,3.17
2022-10-01T04:21:02.528Z,3.40
2022-10-01T04:23:29.248Z,3.78
2022-10-01T04:26:02.338Z,4.13
2022-10-01T04:28:30.542Z,4.03
2022-10-01T04:31:17.438Z,3.72
2022-10-01T04:33:44.759Z,5.93
2022-10-01T04:36:11.769Z,3.30
2022-10-01T04:38:38.565Z,4.97
2022-10-01T04:41:05.616Z,3.67
2022-10-01T04:43:32.326Z,5.10
2022-10-01T04:45:59.019Z,5.03
2022-10-01T04:48:25.697Z,3.53
2022-10-01T04:50:52.508Z,4.15
2022-10-01T04:53:19.192Z,4.35
2022-10-01T04:55:46.571Z,4.75
2022-10-01T04:58:13.265Z,4.83
2022-10-01T05:00:40.295Z,4.65
2022-10-01T05:03:07.283Z,5.30
2022-10-01T05:05:35.034Z,5.30
2022-10-01T05:08:02.323Z,5.32
2022-10-01T05:10:29.267Z,5.00
2022-10-01T05:12:57.914Z,7.28
2022-10-01T05:15:24.574Z,6.93
2022-10-01T05:17:51.272Z,4.63
2022-10-01T05:20:20.814Z,4.88
2022-10-01T05:22:49.321Z,5.20
2022-10-01T05:25:16.947Z,4.95
2022-10-01T05:27:44.022Z,6.40
2022-10-01T05:30:13.713Z,6.75
2022-10-01T05:32:40.472Z,5.07
2022-10-01T05:35:08.420Z,7.70
2022-10-01T05:37:35.850Z,7.60
2022-10-01T05:40:02.795Z,5.57
2022-10-01T05:42:29.712Z,5.30
2022-10-01T05:44:56.800Z,8.43
2022-10-01T05:47:23.525Z,5.90
2022-10-01T05:49:50.270Z,6.45
2022-10-01T05:52:17.133Z,6.68
2022-10-01T05:54:43.988Z,7.88
2022-10-01T05:57:11.126Z,5.60
2022-10-01T05:59:37.776Z,4.97
2022-10-01T06:02:04.606Z,6.18
2022-10-01T06:04:31.566Z,7.15
2022-10-01T06:06:58.855Z,7.25
2022-10-01T06:09:25.808Z,5.53
2022-10-01T06:11:52.502Z,5.70
2022-10-01T06:14:19.189Z,8.90
2022-10-01T06:16:47.173Z,8.15
2022-10-01T06:19:13.943Z,8.23
2022-10-01T06:21:40.640Z,7.40
2022-10-01T06:24:07.412Z,6.73
2022-10-01T06:26:34.172Z,6.30
2022-10-01T06:29:01.512Z,11.10
2022-10-01T06:31:28.870Z,9.48
2022-10-01T06:33:55.576Z,9.10
2022-10-01T06:36:22.261Z,8.50
2022-10-01T06:38:49.384Z,8.57
2022-10-01T06:41:16.078Z,6.47
2022-10-01T06:43:42.757Z,7.70
2022-10-01T06:46:09.577Z,8.45
2022-10-01T06:48:36.845Z,6.60
2022-10-01T06:51:04.556Z,7.10
2022-10-01T06:53:32.131Z,7.03
2022-10-01T06:56:05.352Z,8.55
2022-10-01T06:58:32.604Z,8.15
2022-10-01T07:01:01.283Z,11.40
2022-10-01T07:03:29.030Z,5.95
2022-10-01T07:06:04.973Z,8.15
2022-10-01T07:08:33.042Z,6.15
2022-10-01T07:11:02.593Z,8.93
2022-10-01T07:13:29.777Z,7.63
2022-10-01T07:15:56.528Z,10.50
2022-10-01T07:18:23.602Z,10.07
2022-10-01T07:20:50.629Z,11.65
2022-10-01T07:23:17.387Z,8.45
2022-10-01T07:25:44.862Z,8.97
2022-10-01T07:28:18.333Z,5.53
2022-10-01T07:31:01.404Z,7.05
2022-10-01T07:33:28.338Z,8.10
2022-10-01T07:35:55.130Z,6.22
2022-10-01T07:38:21.967Z,8.40
2022-10-01T07:40:52.851Z,7.95
2022-10-01T07:43:19.523Z,6.03
2022-10-01T07:45:50.032Z,9.48
2022-10-01T07:48:17.144Z,7.72
2022-10-01T07:50:47.392Z,9.00
2022-10-01T07:53:14.057Z,7.30
2022-10-01T07:55:40.993Z,6.75
2022-10-01T07:58:08.296Z,9.98
2022-10-01T08:00:35.346Z,11.55
2022-10-01T08:03:02.265Z,7.40
2022-10-01T08:05:31.929Z,7.43
2022-10-01T08:08:07.047Z,6.38
2022-10-01T08:10:36.476Z,9.52
2022-10-01T08:13:24.901Z,7.22
2022-10-01T08:15:54.602Z,11.60
2022-10-01T08:18:22.547Z,5.88
2022-10-01T08:20:49.915Z,6.38
2022-10-01T08:23:17.559Z,10.82
2022-10-01T08:25:45.157Z,5.80
2022-10-01T08:28:12.432Z,9.83
2022-10-01T08:30:41.453Z,5.45
2022-10-01T08:33:11.066Z,9.80
2022-10-01T08:35:41.896Z,9.10
2022-10-01T08:38:09.753Z,7.80
2022-10-01T08:40:43.682Z,7.47
2022-10-01T08:43:36.325Z,12.02
2022-10-01T08:46:13.588Z,11.02
2022-10-01T08:48:45.444Z,6.55
2022-10-01T08:51:24.115Z,11.77
2022-10-01T08:54:04.656Z,7.30
2022-10-01T08:56:35.383Z,4.57
2022-10-01T08:59:18.115Z,8.23
2022-10-01T09:01:44.881Z,8.32
2022-10-01T09:04:11.770Z,8.32
2022-10-01T09:06:38.716Z,6.60
2022-10-01T09:09:29.279Z,8.38
2022-10-01T09:12:38.230Z,7.90
2022-10-01T09:15:39.509Z,11.02
2022-10-01T09:18:30.908Z,9.45
2022-10-01T09:20:58.939Z,6.73
2022-10-01T09:23:29.364Z,7.80
2022-10-01T09:25:59.478Z,12.05
2022-10-01T09:28:32.248Z,7.93
2022-10-01T09:31:24.765Z,8.15
2022-10-01T09:34:03.417Z,9.03
2022-10-01T09:37:03.632Z,7.65
2022-10-01T09:39:53.848Z,10.32
2022-10-01T09:42:26.256Z,7.38
2022-10-01T09:44:54.354Z,9.63
2022-10-01T09:47:23.374Z,8.30
2022-10-01T09:49:50.044Z,12.05
2022-10-01T09:52:36.166Z,9.57
2022-10-01T09:55:17.929Z,12.77
2022-10-01T09:58:09.449Z,10.60
2022-10-01T10:00:37.668Z,6.80
2022-10-01T10:03:04.614Z,9.10
2022-10-01T10:05:42.727Z,9.63
2022-10-01T10:08:27.701Z,19.45
2022-10-01T10:11:03.396Z,9.30
2022-10-01T10:13:38.943Z,12.93
2022-10-01T10:16:26.782Z,12.35
2022-10-01T10:19:25.774Z,10.63
2022-10-01T10:22:00.519Z,11.60
2022-10-01T10:24:37.053Z,15.98
2022-10-01T10:27:07.156Z,15.27
2022-10-01T10:29:36.055Z,13.43
2022-10-01T10:32:14.570Z,9.07
2022-10-01T10:34:47.523Z,7.00
2022-10-01T10:37:18.004Z,12.38
2022-10-01T10:39:51.172Z,9.07
2022-10-01T10:42:19.723Z,11.27
2022-10-01T10:44:49.519Z,10.73
2022-10-01T10:47:19.092Z,8.80
2022-10-01T10:50:04.394Z,12.80
2022-10-01T10:52:36.133Z,17.00
2022-10-01T10:55:22.753Z,10.00
2022-10-01T10:57:52.361Z,10.88
2022-10-01T11:00:24.261Z,11.75
2022-10-01T11:03:04.218Z,8.25
2022-10-01T11:05:32.968Z,9.87
2022-10-01T11:08:11.998Z,8.55
2022-10-01T11:10:46.480Z,7.75
2022-10-01T11:13:44.865Z,7.57
2022-10-01T11:16:17.437Z,12.27
2022-10-01T11:19:16.401Z,10.17
2022-10-01T11:21:55.170Z,10.93
2022-10-01T11:24:57.208Z,10.27
2022-10-01T11:27:48.810Z,5.93
2022-10-01T11:30:18.592Z,5.00
2022-10-01T11:32:55.030Z,8.77
2022-10-01T11:35:42.598Z,9.63
2022-10-01T11:38:24.209Z,10.57
2022-10-01T11:41:03.329Z,10.68
2022-10-01T11:43:38.785Z,11.00
2022-10-01T11:46:24.841Z,8.33
2022-10-01T11:48:57.328Z,8.13
2022-10-01T11:51:29.755Z,9.27
2022-10-01T11:54:01.312Z,10.55
2022-10-01T11:56:54.733Z,5.85
2022-10-01T11:59:36.588Z,13.80
2022-10-01T12:02:25.238Z,8.70
2022-10-01T12:04:58.131Z,8.48
2022-10-01T12:07:39.015Z,11.38
2022-10-01T12:10:31.250Z,10.70
2022-10-01T12:13:00.425Z,9.23
2022-10-01T12:15:33.889Z,11.20
2022-10-01T12:18:23.134Z,10.48
2022-10-01T12:20:53.441Z,8.20
2022-10-01T12:23:27.133Z,6.55
2022-10-01T12:26:08.826Z,11.53
2022-10-01T12:28:55.558Z,10.27
2022-10-01T12:31:33.272Z,7.57
2022-10-01T12:34:10.000Z,10.98
2022-10-01T12:37:04.505Z,9.82
2022-10-01T12:40:15.625Z,9.07
2022-10-01T12:43:04.243Z,9.88
2022-10-01T12:45:34.208Z,8.35
2022-10-01T12:48:32.449Z,12.20
2022-10-01T12:51:24.056Z,10.93
2022-10-01T12:53:57.451Z,11.63
2022-10-01T12:56:34.416Z,8.75
2022-10-01T12:59:47.131Z,10.38
2022-10-01T13:02:26.087Z,10.93
2022-10-01T13:04:55.312Z,12.13
2022-10-01T13:08:06.066Z,11.30
2022-10-01T13:10:35.743Z,9.65
2022-10-01T13:13:12.402Z,10.88
2022-10-01T13:15:42.817Z,9.75
2022-10-01T13:18:37.137Z,11.85
2022-10-01T13:21:18.525Z,8.83
2022-10-01T13:24:20.208Z,11.45
2022-10-01T13:27:13.241Z,17.55
2022-10-01T13:30:02.904Z,12.30
2022-10-01T13:33:00.929Z,10.73
2022-10-01T13:35:34.430Z,8.93
2022-10-01T13:38:28.979Z,11.45
2022-10-01T13:41:04.529Z,11.30
2022-10-01T13:43:34.033Z,7.53
2022-10-01T13:46:11.240Z,10.65
2022-10-01T13:48:46.836Z,14.97
2022-10-01T13:51:15.111Z,12.93
2022-10-01T13:53:41.728Z,12.90
2022-10-01T13:56:14.255Z,8.80
2022-10-01T13:58:47.357Z,14.57
2022-10-01T14:01:22.934Z,6.93
2022-10-01T14:04:19.653Z,13.70
2022-10-01T14:07:02.654Z,12.48
2022-10-01T14:09:34.920Z,11.02
2022-10-01T14:12:41.156Z,9.07
2022-10-01T14:15:32.722Z,7.33
2022-10-01T14:18:02.949Z,9.25
2022-10-01T14:20:35.378Z,11.00
2022-10-01T14:23:10.785Z,10.70
2022-10-01T14:25:57.077Z,8.75
2022-10-01T14:28:26.946Z,7.57
2022-10-01T14:31:05.885Z,13.80
2022-10-01T14:34:02.041Z,9.55
2022-10-01T14:36:55.872Z,9.70
2022-10-01T14:39:28.211Z,10.68
2022-10-01T14:41:57.486Z,9.47
2022-10-01T14:44:30.128Z,7.95
2022-10-01T14:46:59.363Z,6.35
2022-10-01T14:49:31.098Z,8.35
2022-10-01T14:52:22.066Z,11.82
2022-10-01T14:55:05.167Z,11.53
2022-10-01T14:57:38.276Z,8.88
2022-10-01T15:00:13.397Z,8.40
2022-10-01T15:03:01.973Z,11.15
2022-10-01T15:05:32.160Z,10.23
2022-10-01T15:08:13.295Z,11.43
2022-10-01T15:10:45.922Z,8.93
2022-10-01T15:13:40.667Z,13.63
2022-10-01T15:16:28.120Z,9.73
2022-10-01T15:18:56.441Z,11.13
2022-10-01T15:21:38.372Z,11.93
2022-10-01T15:24:11.526Z,8.50
2022-10-01T15:26:38.285Z,9.60
2022-10-01T15:29:11.884Z,8.60
2022-10-01T15:31:39.397Z,7.95
2022-10-01T15:34:10.190Z,10.23
2022-10-01T15:36:38.428Z,9.25
2022-10-01T15:39:35.479Z,13.30
2022-10-01T15:42:20.440Z,11.27
2022-10-01T15:44:49.886Z,6.10
2022-10-01T15:47:37.523Z,7.30
2022-10-01T15:50:10.000Z,9.40
2022-10-01T15:52:55.739Z,9.98
2022-10-01T15:55:41.245Z,10.20
2022-10-01T15:58:30.253Z,7.15
2022-10-01T16:01:05.493Z,8.57
2022-10-01T16:03:50.737Z,13.43
2022-10-01T16:06:22.107Z,12.63
2022-10-01T16:09:02.806Z,15.15
2022-10-01T16:11:33.102Z,12.45
2022-10-01T16:14:20.009Z,13.10
2022-10-01T16:16:46.948Z,8.43
2022-10-01T16:19:28.176Z,11.63
2022-10-01T16:22:14.776Z,15.48
2022-10-01T16:24:44.378Z,13.00
2022-10-01T16:27:20.775Z,13.17
2022-10-01T16:30:08.855Z,11.70
2022-10-01T16:32:35.722Z,16.25
2022-10-01T16:35:19.547Z,14.25
2022-10-01T16:37:49.951Z,6.10
2022-10-01T16:40:18.658Z,12.90
2022-10-01T16:42:47.050Z,10.30
2022-10-01T16:45:16.410Z,8.73
2022-10-01T16:47:43.274Z,12.63
2022-10-01T16:50:12.296Z,10.02
2022-10-01T16:52:40.121Z,12.73
2022-10-01T16:55:29.715Z,10.32
2022-10-01T16:57:56.508Z,7.70
2022-10-01T17:00:25.620Z,7.40
2022-10-01T17:02:53.516Z,8.82
2022-10-01T17:05:26.417Z,8.17
2022-10-01T17:07:53.964Z,12.52
2022-10-01T17:10:22.972Z,17.95
2022-10-01T17:12:49.814Z,12.73
2022-10-01T17:15:26.307Z,8.70
2022-10-01T17:17:54.786Z,6.07
2022-10-01T17:20:22.186Z,9.57
2022-10-01T17:22:49.749Z,9.63
2022-10-01T17:25:19.318Z,9.07
2022-10-01T17:27:46.764Z,10.63
2022-10-01T17:30:14.292Z,8.60
2022-10-01T17:32:42.889Z,8.75
2022-10-01T17:35:11.802Z,9.02
2022-10-01T17:37:39.025Z,5.38
2022-10-01T17:40:06.786Z,8.23
2022-10-01T17:42:35.421Z,15.57
2022-10-01T17:45:04.054Z,10.00
2022-10-01T17:47:30.749Z,9.02
2022-10-01T17:49:57.520Z,11.05
2022-10-01T17:52:24.190Z,6.38
2022-10-01T17:54:50.880Z,5.27
2022-10-01T17:57:18.276Z,10.15
2022-10-01T17:59:44.962Z,7.72
2022-10-01T18:02:36.569Z,6.57
2022-10-01T18:05:00.101Z,10.25
2022-10-01T18:07:27.277Z,12.13
2022-10-01T18:09:53.966Z,12.85
2022-10-01T18:12:21.186Z,12.77
2022-10-01T18:14:49.734Z,13.02
2022-10-01T18:17:16.521Z,12.30
2022-10-01T18:19:53.487Z,10.73
2022-10-01T18:22:21.313Z,10.02
2022-10-01T18:24:47.962Z,13.07
2022-10-01T18:27:14.873Z,11.18
2022-10-01T18:29:41.624Z,14.18
2022-10-01T18:32:16.982Z,11.17
2022-10-01T18:34:49.581Z,17.20
2022-10-01T18:37:28.306Z,11.60
2022-10-01T18:40:02.010Z,11.27
2022-10-01T18:42:49.370Z,12.23
2022-10-01T18:46:00.433Z,10.13
2022-10-01T18:48:42.868Z,11.77
2022-10-01T18:51:40.329Z,10.18
2022-10-01T18:54:20.563Z,11.57
2022-10-01T18:57:13.992Z,11.05
2022-10-01T18:59:46.612Z,12.30
2022-10-01T19:02:22.180Z,14.65
2022-10-01T19:05:19.578Z,12.45
2022-10-01T19:08:12.176Z,10.88
2022-10-01T19:11:00.155Z,14.88
2022-10-01T19:14:16.681Z,14.63
2022-10-01T19:16:58.561Z,14.82
2022-10-01T19:19:36.427Z,21.83
2022-10-01T19:22:19.832Z,14.57
2022-10-01T19:24:58.554Z,11.02
2022-10-01T19:27:47.168Z,11.83
2022-10-01T19:30:19.648Z,7.13
2022-10-01T19:33:05.173Z,13.30
2022-10-01T19:35:45.587Z,13.05
2022-10-01T19:38:37.045Z,11.70
2022-10-01T19:41:13.087Z,12.43
2022-10-01T19:43:54.022Z,11.45
2022-10-01T19:46:53.064Z,15.18
2022-10-01T19:49:31.392Z,11.40
2022-10-01T19:52:01.179Z,13.63
2022-10-01T19:54:34.392Z,13.80
2022-10-01T19:57:22.456Z,14.13
2022-10-01T19:59:51.165Z,7.82
2022-10-01T20:02:40.889Z,12.05
2022-10-01T20:05:16.043Z,7.38
2022-10-01T20:07:46.912Z,11.87
2022-10-01T20:10:19.435Z,12.10
2022-10-01T20:13:20.741Z,12.75
2022-10-01T20:16:27.038Z,10.38
2022-10-01T20:19:13.751Z,9.98
2022-10-01T20:22:04.941Z,7.30
2022-10-01T20:25:02.808Z,10.23
2022-10-01T20:27:44.660Z,12.63
2022-10-01T20:30:20.119Z,11.23
2022-10-01T20:33:04.258Z,7.47
2022-10-01T20:35:45.921Z,10.20
2022-10-01T20:38:20.873Z,11.25
2022-10-01T20:40:56.740Z,15.70
2022-10-01T20:43:49.020Z,13.10
2022-10-01T20:46:35.213Z,14.45
2022-10-01T20:49:10.762Z,12.33
2022-10-01T20:51:51.166Z,12.45
2022-10-01T20:54:26.971Z,8.57
2022-10-01T20:57:10.743Z,9.43
2022-10-01T20:59:41.077Z,10.27
2022-10-01T21:02:43.128Z,16.50
2022-10-01T21:05:36.053Z,12.05
2022-10-01T21:08:17.473Z,15.60
2022-10-01T21:10:53.869Z,14.13
2022-10-01T21:13:26.473Z,14.43
2022-10-01T21:15:53.202Z,13.47
2022-10-01T21:18:47.613Z,11.93
2022-10-01T21:21:53.341Z,16.98
2022-10-01T21:24:50.947Z,10.93
2022-10-01T21:27:30.158Z,16.70
2022-10-01T21:30:19.925Z,12.07
2022-10-01T21:33:07.910Z,11.80
2022-10-01T21:35:52.316Z,10.60
2022-10-01T21:38:34.722Z,14.25
2022-10-01T21:41:13.575Z,14.80
2022-10-01T21:44:10.848Z,12.63
2022-10-01T21:46:59.407Z,18.98
2022-10-01T21:49:52.162Z,18.30
2022-10-01T21:52:37.210Z,15.95
2022-10-01T21:55:45.051Z,17.88
2022-10-01T21:58:49.549Z,19.80
2022-10-01T22:01:54.333Z,16.20
2022-10-01T22:04:32.719Z,19.35
2022-10-01T22:07:12.794Z,14.85
2022-10-01T22:10:02.556Z,15.57
2022-10-01T22:12:32.384Z,13.67
2022-10-01T22:15:00.327Z,9.25
2022-10-01T22:17:33.583Z,18.83
2022-10-01T22:20:04.175Z,18.77
2022-10-01T22:22:36.459Z,21.63
2022-10-01T22:25:04.691Z,14.37
2022-10-01T22:27:44.172Z,17.00
2022-10-01T22:30:17.586Z,17.88
2022-10-01T22:32:50.212Z,17.58
2022-10-01T22:35:28.700Z,23.88
2022-10-01T22:38:07.144Z,17.43
2022-10-01T22:40:40.319Z,17.75
2022-10-01T22:43:11.041Z,27.25
2022-10-01T22:45:56.399Z,28.55
2022-10-01T22:48:56.027Z,32.35
2022-10-01T22:52:01.602Z,24.17
2022-10-01T22:55:02.494Z,22.15
2022-10-01T22:57:53.236Z,21.67
2022-10-01T23:00:21.267Z,23.45
2022-10-01T23:03:24.260Z,18.08
2022-10-01T23:06:03.813Z,19.00
2022-10-01T23:08:41.201Z,18.45
2022-10-01T23:11:34.963Z,17.58
2022-10-01T23:14:22.243Z,16.15
2022-10-01T23:17:21.846Z,21.02
2022-10-01T23:19:51.225Z,14.57
2022-10-01T23:22:55.467Z,21.88
2022-10-01T23:25:40.138Z,18.98
2022-10-01T23:28:28.170Z,19.15
2022-10-01T23:31:22.792Z,15.88
2022-10-01T23:34:14.203Z,13.57
2022-10-01T23:36:53.875Z,17.55
2022-10-01T23:39:42.786Z,14.95
2022-10-01T23:42:22.728Z,13.98
2022-10-01T23:44:58.283Z,13.95
2022-10-01T23:47:51.304Z,19.63
2022-10-01T23:50:39.761Z,11.07
2022-10-01T23:53:12.947Z,16.33
2022-10-01T23:56:23.417Z,8.98
2022-10-01T23:59:15.985Z,11.40
